Time;durP1;ratioP1;P1;durP2;ratioP2;P2;SDS_P1;SDS_P2;PMS_P1;PMS_P2;Temp;Humidity;BMP_temperature;BMP_pressure;BME280_temperature;BME280_humidity;BME280_pressure;Samples;Min_cycle;Max_cycle;Signal;HPM_P1;HPM_P2
2022/03/23 00:00:32;;;;;;;21.40;8.90;;;;;;;;;;5096257;28;20482;-71
2022/03/23 00:02:59;;;;;;;13.67;8.77;;;;;;;;;;5095819;28;20455;-72
2022/03/23 00:05:28;;;;;;;15.57;9.07;;;;;;;;;;5095842;28;20449;-71
2022/03/23 00:07:57;;;;;;;15.03;10.03;;;;;;;;;;5095627;28;20493;-71
2022/03/23 00:10:24;;;;;;;17.60;10.20;;;;;;;;;;5096033;28;20443;-70
2022/03/23 00:12:51;;;;;;;19.90;9.93;;;;;;;;;;5095611;28;20450;-70
2022/03/23 00:15:18;;;;;;;17.00;11.10;;;;;;;;;;5095613;28;20457;-70
2022/03/23 00:17:46;;;;;;;15.20;10.57;;;;;;;;;;5095452;28;20466;-71
2022/03/23 00:20:14;;;;;;;17.63;9.60;;;;;;;;;;5095485;28;21052;-71
2022/03/23 00:22:42;;;;;;;12.93;8.93;;;;;;;;;;5095622;28;20972;-70
2022/03/23 00:25:11;;;;;;;14.13;8.03;;;;;;;;;;5095849;28;20466;-71
2022/03/23 00:27:39;;;;;;;19.13;9.40;;;;;;;;;;5095609;28;20510;-71
2022/03/23 00:30:07;;;;;;;23.57;9.93;;;;;;;;;;5095443;28;20465;-71
2022/03/23 00:32:35;;;;;;;16.20;9.90;;;;;;;;;;5095350;28;20537;-70
2022/03/23 00:35:02;;;;;;;20.90;11.03;;;;;;;;;;5095019;28;20472;-70
2022/03/23 00:37:29;;;;;;;19.93;10.07;;;;;;;;;;5095401;28;20493;-70
2022/03/23 00:39:57;;;;;;;14.60;10.00;;;;;;;;;;5094682;28;20493;-74
2022/03/23 00:42:25;;;;;;;15.50;9.27;;;;;;;;;;5095439;28;20947;-70
2022/03/23 00:44:52;;;;;;;18.93;9.90;;;;;;;;;;5094917;28;20516;-71
2022/03/23 00:47:19;;;;;;;16.33;9.33;;;;;;;;;;5094916;28;20530;-70
2022/03/23 00:49:46;;;;;;;13.60;8.53;;;;;;;;;;5094519;28;20455;-71
2022/03/23 00:52:14;;;;;;;16.63;9.87;;;;;;;;;;5095051;28;20478;-70
2022/03/23 00:54:41;;;;;;;20.60;10.30;;;;;;;;;;5094703;28;20446;-70
2022/03/23 00:57:08;;;;;;;19.10;9.50;;;;;;;;;;5094783;28;20439;-71
2022/03/23 00:59:37;;;;;;;16.70;9.47;;;;;;;;;;5094732;28;20454;-71
2022/03/23 01:02:05;;;;;;;19.43;10.50;;;;;;;;;;5094677;28;20459;-70
2022/03/23 01:04:32;;;;;;;16.40;9.73;;;;;;;;;;5094649;28;20466;-70
2022/03/23 01:06:59;;;;;;;16.80;10.53;;;;;;;;;;5094489;28;20450;-70
2022/03/23 01:09:26;;;;;;;19.87;9.77;;;;;;;;;;5094716;28;20451;-70
2022/03/23 01:11:54;;;;;;;16.57;9.40;;;;;;;;;;5094430;28;20453;-71
2022/03/23 01:14:23;;;;;;;21.20;10.37;;;;;;;;;;5094474;28;20553;-70
2022/03/23 01:16:52;;;;;;;16.80;9.00;;;;;;;;;;5094629;28;20451;-70
2022/03/23 01:19:22;;;;;;;17.87;10.37;;;;;;;;;;5094494;28;20868;-70
2022/03/23 01:21:49;;;;;;;24.83;12.07;;;;;;;;;;5094168;28;20493;-70
2022/03/23 01:24:16;;;;;;;17.53;9.93;;;;;;;;;;5094309;28;20966;-71
2022/03/23 01:26:43;;;;;;;15.60;9.77;;;;;;;;;;5094273;28;20831;-70
2022/03/23 01:29:11;;;;;;;20.70;10.30;;;;;;;;;;5094368;28;20500;-70
2022/03/23 01:31:38;;;;;;;23.30;10.47;;;;;;;;;;5094382;28;20458;-70
2022/03/23 01:34:07;;;;;;;29.27;14.80;;;;;;;;;;5093903;28;20463;-71
2022/03/23 01:36:34;;;;;;;21.97;13.50;;;;;;;;;;5094033;28;20473;-70
2022/03/23 01:39:01;;;;;;;26.50;14.67;;;;;;;;;;5093908;28;20475;-71
2022/03/23 01:41:28;;;;;;;27.17;14.50;;;;;;;;;;5093596;28;20865;-71
2022/03/23 01:43:55;;;;;;;26.40;13.47;;;;;;;;;;5093871;28;20450;-71
2022/03/23 01:46:22;;;;;;;21.50;12.30;;;;;;;;;;5093998;28;20455;-70
2022/03/23 01:48:49;;;;;;;21.00;13.03;;;;;;;;;;5093914;28;20819;-70
2022/03/23 01:51:18;;;;;;;21.33;11.23;;;;;;;;;;5094013;28;20443;-70
2022/03/23 01:53:45;;;;;;;15.70;10.20;;;;;;;;;;5093801;28;20454;-71
2022/03/23 01:56:14;;;;;;;16.90;10.57;;;;;;;;;;5093779;28;20446;-70
2022/03/23 01:58:41;;;;;;;17.10;9.80;;;;;;;;;;5093774;28;20519;-70
2022/03/23 02:01:08;;;;;;;14.70;9.30;;;;;;;;;;5092748;28;20494;-70
2022/03/23 02:03:35;;;;;;;13.40;8.50;;;;;;;;;;5093399;28;20831;-70
2022/03/23 02:06:02;;;;;;;15.33;9.20;;;;;;;;;;5093521;28;20478;-70
2022/03/23 02:08:31;;;;;;;11.00;8.60;;;;;;;;;;5093490;28;20479;-70
2022/03/23 02:10:58;;;;;;;15.37;8.10;;;;;;;;;;5093537;28;20786;-70
2022/03/23 02:13:25;;;;;;;16.20;9.73;;;;;;;;;;5093621;28;20824;-70
2022/03/23 02:15:52;;;;;;;19.20;9.73;;;;;;;;;;5093358;28;20450;-70
2022/03/23 02:18:20;;;;;;;14.27;8.90;;;;;;;;;;5093341;28;20474;-70
2022/03/23 02:20:47;;;;;;;17.60;9.23;;;;;;;;;;5093277;28;20865;-70
2022/03/23 02:23:15;;;;;;;16.17;8.90;;;;;;;;;;5093184;28;20959;-70
2022/03/23 02:25:46;;;;;;;14.40;9.17;;;;;;;;;;5093164;28;20447;-70
2022/03/23 02:28:14;;;;;;;16.67;10.00;;;;;;;;;;5093261;28;20470;-70
2022/03/23 02:30:41;;;;;;;13.60;8.97;;;;;;;;;;5093362;28;20454;-70
2022/03/23 02:33:09;;;;;;;18.33;10.07;;;;;;;;;;5093020;28;20498;-71
2022/03/23 02:35:36;;;;;;;16.60;9.33;;;;;;;;;;5093034;28;20454;-71
2022/03/23 02:38:03;;;;;;;16.40;9.90;;;;;;;;;;5092997;28;20478;-70
2022/03/23 02:40:32;;;;;;;15.70;8.20;;;;;;;;;;5093241;28;20490;-70
2022/03/23 02:43:00;;;;;;;15.93;9.97;;;;;;;;;;5093133;28;20462;-70
2022/03/23 02:45:27;;;;;;;13.80;9.70;;;;;;;;;;5093115;28;20947;-70
2022/03/23 02:47:56;;;;;;;15.80;9.30;;;;;;;;;;5092825;28;20473;-71
2022/03/23 02:50:24;;;;;;;15.40;8.70;;;;;;;;;;5093243;28;20447;-70
2022/03/23 03:04:13;;;;;;;23.50;9.73;;;;;;;;;;5092828;28;20422;-70
2022/03/23 03:06:40;;;;;;;17.83;12.30;;;;;;;;;;5093002;28;20458;-71
2022/03/23 03:09:07;;;;;;;19.73;12.33;;;;;;;;;;5092655;28;20849;-70
2022/03/23 03:11:36;;;;;;;18.57;10.53;;;;;;;;;;5093063;28;20458;-70
2022/03/23 03:14:03;;;;;;;20.23;11.47;;;;;;;;;;5095609;28;20825;-70
2022/03/23 03:16:30;;;;;;;16.30;10.30;;;;;;;;;;5096985;28;20454;-70
2022/03/23 03:18:57;;;;;;;14.40;10.40;;;;;;;;;;5096781;28;20482;-70
2022/03/23 03:21:24;;;;;;;15.50;11.40;;;;;;;;;;5096760;28;20512;-70
2022/03/23 03:23:51;;;;;;;17.10;12.47;;;;;;;;;;5096581;28;20457;-70
2022/03/23 03:26:19;;;;;;;20.63;11.50;;;;;;;;;;5096978;28;20457;-70
2022/03/23 03:28:49;;;;;;;14.50;9.43;;;;;;;;;;5096489;28;20477;-70
2022/03/23 03:31:16;;;;;;;17.00;9.63;;;;;;;;;;5096548;28;20447;-70
2022/03/23 03:33:44;;;;;;;14.90;9.17;;;;;;;;;;5096374;28;20461;-72
2022/03/23 03:36:12;;;;;;;15.80;9.60;;;;;;;;;;5096633;28;20457;-70
2022/03/23 03:38:39;;;;;;;18.27;10.17;;;;;;;;;;5096437;28;20987;-70
2022/03/23 03:41:06;;;;;;;31.30;15.47;;;;;;;;;;5095692;28;20486;-70
2022/03/23 03:43:34;;;;;;;14.30;9.83;;;;;;;;;;5096209;28;20469;-70
2022/03/23 03:46:06;;;;;;;14.93;8.57;;;;;;;;;;5096302;28;20443;-71
2022/03/23 03:48:33;;;;;;;18.30;10.00;;;;;;;;;;5096139;28;20528;-70
2022/03/23 03:51:00;;;;;;;14.37;9.30;;;;;;;;;;5096057;28;20454;-70
2022/03/23 03:53:27;;;;;;;12.60;8.87;;;;;;;;;;5096032;28;20453;-73
2022/03/23 03:55:54;;;;;;;14.47;8.50;;;;;;;;;;5096082;28;20446;-70
2022/03/23 03:58:22;;;;;;;15.63;9.83;;;;;;;;;;5096164;28;20478;-70
2022/03/23 04:00:49;;;;;;;20.87;10.50;;;;;;;;;;5096142;28;21047;-71
2022/03/23 04:03:17;;;;;;;32.57;14.90;;;;;;;;;;5095981;28;20447;-70
2022/03/23 04:05:44;;;;;;;24.30;11.80;;;;;;;;;;5095634;28;20454;-70
2022/03/23 04:08:11;;;;;;;14.27;8.87;;;;;;;;;;5095768;28;20833;-70
2022/03/23 04:10:38;;;;;;;16.23;10.70;;;;;;;;;;5096308;28;20443;-70
2022/03/23 04:13:07;;;;;;;19.27;8.90;;;;;;;;;;5095735;28;20457;-71
2022/03/23 04:15:35;;;;;;;16.53;10.10;;;;;;;;;;5095451;28;20454;-70
2022/03/23 04:18:02;;;;;;;19.03;9.40;;;;;;;;;;5095137;28;20478;-70
2022/03/23 04:20:31;;;;;;;13.90;8.77;;;;;;;;;;5095477;28;20455;-70
2022/03/23 04:22:58;;;;;;;19.03;9.50;;;;;;;;;;5095203;28;20835;-70
2022/03/23 04:25:25;;;;;;;16.10;10.73;;;;;;;;;;5094007;28;20947;-70
2022/03/23 04:27:53;;;;;;;18.40;8.90;;;;;;;;;;5094851;28;20484;-70
2022/03/23 04:30:21;;;;;;;14.27;9.23;;;;;;;;;;5095325;28;20450;-70
2022/03/23 04:32:49;;;;;;;11.50;7.97;;;;;;;;;;5095011;28;20948;-70
2022/03/23 04:35:16;;;;;;;17.43;9.00;;;;;;;;;;5094992;28;20503;-70
2022/03/23 04:37:45;;;;;;;15.97;8.93;;;;;;;;;;5094890;28;20474;-70
2022/03/23 04:40:14;;;;;;;16.27;9.60;;;;;;;;;;5094263;28;20454;-70
2022/03/23 04:42:41;;;;;;;13.93;9.70;;;;;;;;;;5094715;28;20486;-70
2022/03/23 04:45:09;;;;;;;16.80;10.30;;;;;;;;;;5094495;28;20458;-70
2022/03/23 04:47:38;;;;;;;14.40;8.40;;;;;;;;;;5094579;28;20477;-70
2022/03/23 04:50:06;;;;;;;11.97;8.47;;;;;;;;;;5094731;28;20470;-70
2022/03/23 04:52:33;;;;;;;22.73;10.80;;;;;;;;;;5094916;28;20449;-70
2022/03/23 04:55:03;;;;;;;17.67;9.53;;;;;;;;;;5094368;28;20450;-71
2022/03/23 04:57:30;;;;;;;17.77;9.60;;;;;;;;;;5094557;28;20506;-70
2022/03/23 04:59:58;;;;;;;18.67;10.03;;;;;;;;;;5094530;28;20455;-70
2022/03/23 05:02:25;;;;;;;15.47;8.67;;;;;;;;;;5094519;28;20563;-70
2022/03/23 05:04:52;;;;;;;16.67;9.80;;;;;;;;;;5094162;28;20449;-71
2022/03/23 05:07:19;;;;;;;15.03;9.70;;;;;;;;;;5094287;28;20574;-70
2022/03/23 05:09:46;;;;;;;15.03;9.40;;;;;;;;;;5094501;28;20451;-71
2022/03/23 05:12:15;;;;;;;10.90;8.73;;;;;;;;;;5094308;28;20465;-70
2022/03/23 05:14:42;;;;;;;16.60;10.30;;;;;;;;;;5094027;28;20458;-70
2022/03/23 05:17:09;;;;;;;14.73;9.10;;;;;;;;;;5094430;28;20813;-70
2022/03/23 05:19:36;;;;;;;15.20;9.60;;;;;;;;;;5094602;28;20456;-70
2022/03/23 05:22:05;;;;;;;19.23;10.17;;;;;;;;;;5094027;28;20508;-70
2022/03/23 05:24:32;;;;;;;19.27;9.90;;;;;;;;;;5093927;28;20888;-70
2022/03/23 05:26:59;;;;;;;19.57;11.63;;;;;;;;;;5094075;28;20999;-71
2022/03/23 05:29:28;;;;;;;20.17;12.43;;;;;;;;;;5094143;28;20499;-70
2022/03/23 05:31:55;;;;;;;14.00;10.20;;;;;;;;;;5094092;28;20446;-70
2022/03/23 05:34:22;;;;;;;17.80;11.63;;;;;;;;;;5093607;28;20447;-71
2022/03/23 05:36:49;;;;;;;19.10;9.23;;;;;;;;;;5093600;28;20813;-70
2022/03/23 05:39:16;;;;;;;17.30;10.60;;;;;;;;;;5093911;28;20471;-70
2022/03/23 05:41:44;;;;;;;23.57;11.60;;;;;;;;;;5093562;28;20486;-70
2022/03/23 05:44:11;;;;;;;20.67;9.70;;;;;;;;;;5093385;28;20454;-70
2022/03/23 05:46:39;;;;;;;35.63;11.90;;;;;;;;;;5093651;28;20447;-70
2022/03/23 05:49:07;;;;;;;21.10;12.60;;;;;;;;;;5093411;28;20466;-70
2022/03/23 05:51:34;;;;;;;20.97;11.33;;;;;;;;;;5093498;28;20490;-70
2022/03/23 05:54:02;;;;;;;18.83;11.13;;;;;;;;;;5093815;28;20459;-70
2022/03/23 05:56:29;;;;;;;18.07;12.37;;;;;;;;;;5093467;28;20454;-70
2022/03/23 05:58:56;;;;;;;17.97;10.37;;;;;;;;;;5093434;28;20834;-70
2022/03/23 06:01:23;;;;;;;17.83;10.67;;;;;;;;;;5093217;28;20489;-70
2022/03/23 06:03:51;;;;;;;17.73;10.17;;;;;;;;;;5093277;28;20827;-71
2022/03/23 06:06:19;;;;;;;21.67;11.77;;;;;;;;;;5093408;28;20455;-70
2022/03/23 06:08:46;;;;;;;14.40;10.40;;;;;;;;;;5093298;28;20990;-70
2022/03/23 06:11:13;;;;;;;23.17;11.90;;;;;;;;;;5093105;28;20455;-70
2022/03/23 06:13:41;;;;;;;19.33;11.17;;;;;;;;;;5092989;28;20511;-70
2022/03/23 06:16:08;;;;;;;19.03;11.27;;;;;;;;;;5092923;28;20843;-71
2022/03/23 06:18:35;;;;;;;17.00;11.00;;;;;;;;;;5093018;28;20848;-70
2022/03/23 06:21:04;;;;;;;24.27;9.77;;;;;;;;;;5093102;28;20451;-70
2022/03/23 06:23:31;;;;;;;33.13;11.10;;;;;;;;;;5093210;28;20455;-70
2022/03/23 06:25:58;;;;;;;17.70;10.10;;;;;;;;;;5093166;28;20446;-70
2022/03/23 06:28:25;;;;;;;16.10;10.63;;;;;;;;;;5092965;28;20458;-71
2022/03/23 06:30:52;;;;;;;16.47;11.00;;;;;;;;;;5092747;28;20457;-71
2022/03/23 06:33:20;;;;;;;18.30;11.73;;;;;;;;;;5093224;28;20443;-71
2022/03/23 06:35:47;;;;;;;18.40;13.60;;;;;;;;;;5092803;28;20478;-71
2022/03/23 06:38:16;;;;;;;18.63;13.97;;;;;;;;;;5093073;28;20471;-71
2022/03/23 06:40:43;;;;;;;17.10;13.90;;;;;;;;;;5092709;28;20450;-71
2022/03/23 06:43:10;;;;;;;15.47;11.83;;;;;;;;;;5092615;28;21003;-72
2022/03/23 06:45:40;;;;;;;16.13;11.40;;;;;;;;;;5092633;28;20450;-72
2022/03/23 06:48:07;;;;;;;18.33;11.13;;;;;;;;;;5091992;28;20477;-72
2022/03/23 06:50:34;;;;;;;11.53;10.33;;;;;;;;;;5092928;28;20966;-72
2022/03/23 06:53:01;;;;;;;13.60;10.73;;;;;;;;;;5092320;28;20463;-72
2022/03/23 06:55:30;;;;;;;12.73;11.53;;;;;;;;;;5092709;28;20446;-72
2022/03/23 06:57:57;;;;;;;14.60;12.10;;;;;;;;;;5092652;28;20481;-72
2022/03/23 07:00:24;;;;;;;18.27;11.03;;;;;;;;;;5093229;28;20940;-72
2022/03/23 07:02:51;;;;;;;15.73;10.80;;;;;;;;;;5087176;28;20490;-73
2022/03/23 07:05:20;;;;;;;14.60;11.20;;;;;;;;;;5090162;28;20473;-72
2022/03/23 07:10:34;;;;;;;27.80;13.17;;;;;;;;;;5091546;28;20426;-72
2022/03/23 07:13:01;;;;;;;15.93;10.47;;;;;;;;;;5091122;28;20479;-74
2022/03/23 07:15:29;;;;;;;18.27;10.53;;;;;;;;;;5091499;28;20962;-72
2022/03/23 07:17:56;;;;;;;13.47;10.90;;;;;;;;;;5091327;28;20971;-72
2022/03/23 07:20:24;;;;;;;16.07;12.20;;;;;;;;;;5091587;28;20447;-71
2022/03/23 07:22:51;;;;;;;17.17;11.03;;;;;;;;;;5091126;28;20487;-72
2022/03/23 07:25:18;;;;;;;17.80;10.93;;;;;;;;;;5091070;28;20828;-72
2022/03/23 07:27:46;;;;;;;8.60;7.80;;;;;;;;;;5091353;28;20987;-72
2022/03/23 07:30:14;;;;;;;10.17;8.70;;;;;;;;;;5091487;28;20450;-72
2022/03/23 07:32:41;;;;;;;10.30;8.57;;;;;;;;;;5091213;28;20500;-71
2022/03/23 07:35:09;;;;;;;9.60;8.13;;;;;;;;;;5090964;28;20450;-72
2022/03/23 07:37:36;;;;;;;10.30;8.50;;;;;;;;;;5091182;28;20477;-72
2022/03/23 07:40:04;;;;;;;12.07;8.80;;;;;;;;;;5091319;28;20453;-72
2022/03/23 07:42:31;;;;;;;10.93;8.87;;;;;;;;;;5091133;28;20490;-72
2022/03/23 07:44:59;;;;;;;9.23;8.13;;;;;;;;;;5090706;28;20454;-72
2022/03/23 07:47:27;;;;;;;11.07;8.00;;;;;;;;;;5091128;28;20822;-72
2022/03/23 07:49:54;;;;;;;14.53;9.00;;;;;;;;;;5090977;28;20455;-73
2022/03/23 07:52:21;;;;;;;13.67;8.80;;;;;;;;;;5091141;28;20442;-72
2022/03/23 07:54:48;;;;;;;10.00;7.87;;;;;;;;;;5090791;28;20454;-72
2022/03/23 07:57:15;;;;;;;10.33;8.07;;;;;;;;;;5090970;28;20450;-72
2022/03/23 07:59:42;;;;;;;12.03;8.13;;;;;;;;;;5091888;28;20822;-72
2022/03/23 08:02:11;;;;;;;7.97;7.17;;;;;;;;;;5094262;28;20485;-72
2022/03/23 08:04:38;;;;;;;8.67;7.77;;;;;;;;;;5094511;28;20455;-71
2022/03/23 08:07:05;;;;;;;8.20;7.40;;;;;;;;;;5094183;28;20455;-72
2022/03/23 08:09:32;;;;;;;11.23;7.80;;;;;;;;;;5094553;28;20455;-72
2022/03/23 08:11:59;;;;;;;8.17;7.30;;;;;;;;;;5094477;28;20872;-72
2022/03/23 08:14:27;;;;;;;11.93;7.53;;;;;;;;;;5094148;28;20450;-72
2022/03/23 08:16:54;;;;;;;9.80;6.87;;;;;;;;;;5093830;28;20458;-72
2022/03/23 08:19:22;;;;;;;12.53;7.47;;;;;;;;;;5094348;28;20478;-72
2022/03/23 08:21:50;;;;;;;8.10;7.03;;;;;;;;;;5094009;28;20599;-72
2022/03/23 08:24:17;;;;;;;12.40;6.47;;;;;;;;;;5093889;28;20447;-72
2022/03/23 08:26:44;;;;;;;7.87;7.13;;;;;;;;;;5094259;28;20462;-72
2022/03/23 08:29:11;;;;;;;8.83;7.03;;;;;;;;;;5094103;28;21025;-72
2022/03/23 08:31:38;;;;;;;8.40;7.53;;;;;;;;;;5094094;28;20826;-72
2022/03/23 08:34:06;;;;;;;10.50;7.10;;;;;;;;;;5093855;28;20458;-72
2022/03/23 08:36:34;;;;;;;7.43;6.73;;;;;;;;;;5094146;28;20465;-72
2022/03/23 08:39:01;;;;;;;9.50;7.47;;;;;;;;;;5093544;28;20528;-72
2022/03/23 08:41:28;;;;;;;8.80;7.90;;;;;;;;;;5093688;28;20451;-72
2022/03/23 08:43:56;;;;;;;8.40;7.20;;;;;;;;;;5093811;28;20494;-72
2022/03/23 08:46:23;;;;;;;12.53;8.97;;;;;;;;;;5093618;28;20463;-71
2022/03/23 08:48:51;;;;;;;9.00;8.07;;;;;;;;;;5093492;28;20501;-72
2022/03/23 08:51:19;;;;;;;10.37;7.77;;;;;;;;;;5093795;28;20532;-73
2022/03/23 08:53:48;;;;;;;11.63;8.80;;;;;;;;;;5093413;28;20504;-72
2022/03/23 08:56:15;;;;;;;14.00;8.50;;;;;;;;;;5093505;28;20932;-72
2022/03/23 08:58:47;;;;;;;9.97;8.40;;;;;;;;;;5093527;28;20493;-72
2022/03/23 09:01:14;;;;;;;11.00;9.90;;;;;;;;;;5093371;28;20459;-72
2022/03/23 09:03:42;;;;;;;21.80;19.40;;;;;;;;;;5093465;28;20490;-72
2022/03/23 09:06:10;;;;;;;28.03;21.57;;;;;;;;;;5093420;28;20465;-71
2022/03/23 09:08:37;;;;;;;12.03;10.73;;;;;;;;;;5093041;28;20477;-72
2022/03/23 09:11:05;;;;;;;12.20;9.90;;;;;;;;;;5092667;28;20450;-72
2022/03/23 09:13:33;;;;;;;14.30;11.50;;;;;;;;;;5093234;28;20447;-72
2022/03/23 09:16:00;;;;;;;12.57;11.33;;;;;;;;;;5092900;28;20939;-72
2022/03/23 09:18:28;;;;;;;14.10;10.77;;;;;;;;;;5093094;28;20474;-72
2022/03/23 09:20:55;;;;;;;14.70;11.00;;;;;;;;;;5092967;28;20540;-72
2022/03/23 09:23:23;;;;;;;14.20;11.77;;;;;;;;;;5092846;28;20530;-71
2022/03/23 09:25:51;;;;;;;12.87;9.33;;;;;;;;;;5092837;28;20458;-72
2022/03/23 09:28:19;;;;;;;12.93;9.37;;;;;;;;;;5092966;28;20486;-72
2022/03/23 09:30:46;;;;;;;10.43;9.40;;;;;;;;;;5092831;28;20446;-72
2022/03/23 09:33:13;;;;;;;15.20;9.67;;;;;;;;;;5093044;28;20824;-72
2022/03/23 09:35:41;;;;;;;11.17;8.90;;;;;;;;;;5092697;28;20474;-72
2022/03/23 09:38:08;;;;;;;11.53;8.73;;;;;;;;;;5092411;28;20463;-72
2022/03/23 09:40:35;;;;;;;14.97;10.00;;;;;;;;;;5092818;28;20947;-72
2022/03/23 09:43:03;;;;;;;12.27;8.60;;;;;;;;;;5092391;28;20482;-71
2022/03/23 09:45:47;;;;;;;13.30;10.80;;;;;;;;;;5092302;28;20455;-72
2022/03/23 09:48:16;;;;;;;11.23;8.70;;;;;;;;;;5092553;28;20479;-72
2022/03/23 09:50:44;;;;;;;11.90;10.70;;;;;;;;;;5092463;28;20541;-72
2022/03/23 09:53:11;;;;;;;9.80;8.03;;;;;;;;;;5092040;28;20454;-71
2022/03/23 09:55:38;;;;;;;10.13;9.13;;;;;;;;;;5092347;28;20454;-72
2022/03/23 09:58:06;;;;;;;10.03;8.30;;;;;;;;;;5092236;28;20825;-72
2022/03/23 10:00:37;;;;;;;9.53;8.53;;;;;;;;;;5092289;28;20944;-73
2022/03/23 10:03:22;;;;;;;13.20;8.60;;;;;;;;;;5089983;28;20482;-72
2022/03/23 10:06:02;;;;;;;9.97;8.60;;;;;;;;;;5093407;28;20443;-72
2022/03/23 10:08:40;;;;;;;10.00;8.37;;;;;;;;;;5093382;28;20957;-72
2022/03/23 10:11:25;;;;;;;11.87;8.13;;;;;;;;;;5093671;28;20473;-72
2022/03/23 10:14:11;;;;;;;11.00;8.90;;;;;;;;;;5093411;28;20473;-72
2022/03/23 10:16:57;;;;;;;18.70;10.00;;;;;;;;;;5093540;28;20824;-72
2022/03/23 10:19:25;;;;;;;15.20;8.43;;;;;;;;;;5093686;28;20834;-72
2022/03/23 10:21:53;;;;;;;14.23;8.17;;;;;;;;;;5092837;28;20466;-73
2022/03/23 10:24:36;;;;;;;9.53;7.70;;;;;;;;;;5093040;28;21003;-72
2022/03/23 10:27:08;;;;;;;9.83;7.60;;;;;;;;;;5093309;28;20458;-72
2022/03/23 10:29:41;;;;;;;11.43;7.30;;;;;;;;;;5093329;28;20458;-71
2022/03/23 10:32:09;;;;;;;6.57;5.97;;;;;;;;;;5093384;28;20935;-72
2022/03/23 10:34:56;;;;;;;7.90;6.57;;;;;;;;;;5093192;28;20507;-72
2022/03/23 10:37:29;;;;;;;6.70;6.10;;;;;;;;;;5088414;28;20486;-72
2022/03/23 10:39:56;;;;;;;7.60;6.80;;;;;;;;;;5093148;28;20454;-73
2022/03/23 10:42:25;;;;;;;7.37;6.67;;;;;;;;;;5093207;28;20454;-72
2022/03/23 10:45:04;;;;;;;7.70;6.63;;;;;;;;;;5092913;28;21000;-73
2022/03/23 10:47:32;;;;;;;7.60;6.90;;;;;;;;;;5093319;28;20904;-72
2022/03/23 10:50:07;;;;;;;6.70;6.00;;;;;;;;;;5093083;28;20453;-73
2022/03/23 10:52:36;;;;;;;6.97;6.27;;;;;;;;;;5093248;28;20942;-72
2022/03/23 10:55:06;;;;;;;10.07;6.33;;;;;;;;;;5092773;28;20450;-72
2022/03/23 10:57:52;;;;;;;6.87;6.13;;;;;;;;;;5093157;28;20576;-73
2022/03/23 11:00:29;;;;;;;6.93;6.10;;;;;;;;;;5093151;28;20455;-72
2022/03/23 11:02:56;;;;;;;8.90;7.30;;;;;;;;;;5086392;28;20492;-73
2022/03/23 11:05:33;;;;;;;7.13;6.43;;;;;;;;;;5070883;28;20459;-72
2022/03/23 11:08:08;;;;;;;6.90;6.07;;;;;;;;;;5071004;28;20968;-72
2022/03/23 11:16:09;;;;;;;8.37;7.27;;;;;;;;;;5071115;28;20450;-73
2022/03/23 11:18:36;;;;;;;8.33;7.30;;;;;;;;;;5071135;28;20480;-73
2022/03/23 11:21:03;;;;;;;7.70;6.77;;;;;;;;;;5071115;28;20447;-73
2022/03/23 11:23:33;;;;;;;9.10;7.83;;;;;;;;;;5071721;28;20533;-73
2022/03/23 11:26:01;;;;;;;8.70;7.80;;;;;;;;;;5072458;28;20459;-73
2022/03/23 11:28:29;;;;;;;7.30;6.10;;;;;;;;;;5072399;28;20479;-72
2022/03/23 11:30:57;;;;;;;8.43;6.93;;;;;;;;;;5072493;28;20972;-73
2022/03/23 11:33:25;;;;;;;7.43;6.57;;;;;;;;;;5072943;28;20817;-73
2022/03/23 11:35:53;;;;;;;8.00;7.30;;;;;;;;;;5076139;28;20448;-73
2022/03/23 11:38:21;;;;;;;9.80;7.93;;;;;;;;;;5076372;28;20478;-72
2022/03/23 11:40:52;;;;;;;10.10;6.83;;;;;;;;;;5076138;28;20455;-73
2022/03/23 11:43:20;;;;;;;10.30;6.17;;;;;;;;;;5076028;28;20490;-72
2022/03/23 11:45:48;;;;;;;11.63;6.33;;;;;;;;;;5083273;28;20461;-73
2022/03/23 11:48:18;;;;;;;6.93;6.13;;;;;;;;;;5094618;28;20976;-73
2022/03/23 11:50:56;;;;;;;6.57;5.97;;;;;;;;;;5094864;28;20458;-73
2022/03/23 11:53:28;;;;;;;7.23;6.20;;;;;;;;;;5094816;28;20456;-73
2022/03/23 11:55:57;;;;;;;9.43;5.80;;;;;;;;;;5094561;28;20833;-73
2022/03/23 11:58:34;;;;;;;7.77;7.03;;;;;;;;;;5094847;28;20495;-73
2022/03/23 12:01:08;;;;;;;6.70;6.17;;;;;;;;;;5094541;28;20830;-73
2022/03/23 12:03:56;;;;;;;10.60;5.97;;;;;;;;;;5094587;28;20592;-73
2022/03/23 12:06:23;;;;;;;6.70;5.90;;;;;;;;;;5095952;28;20829;-73
2022/03/23 12:08:51;;;;;;;6.37;5.80;;;;;;;;;;5095936;28;20478;-72
2022/03/23 12:11:33;;;;;;;6.50;5.80;;;;;;;;;;5095251;28;20455;-73
2022/03/23 12:14:00;;;;;;;6.83;6.23;;;;;;;;;;5095777;28;20439;-72
2022/03/23 12:16:42;;;;;;;8.73;5.90;;;;;;;;;;5095886;28;20455;-73
2022/03/23 12:19:10;;;;;;;6.20;5.70;;;;;;;;;;5095696;28;20474;-72
2022/03/23 12:21:45;;;;;;;7.30;6.60;;;;;;;;;;5095602;28;20512;-72
2022/03/23 12:24:15;;;;;;;9.87;6.20;;;;;;;;;;5095577;28;20568;-72
2022/03/23 12:26:45;;;;;;;7.93;7.23;;;;;;;;;;5095720;28;20450;-72
2022/03/23 12:29:14;;;;;;;8.20;6.97;;;;;;;;;;5095801;28;20473;-73
2022/03/23 12:31:41;;;;;;;9.27;7.60;;;;;;;;;;5095541;28;20490;-73
2022/03/23 12:34:12;;;;;;;9.33;8.40;;;;;;;;;;5095325;28;20446;-73
2022/03/23 12:37:00;;;;;;;6.83;6.23;;;;;;;;;;5095667;28;20454;-73
2022/03/23 12:39:28;;;;;;;7.20;6.60;;;;;;;;;;5095519;28;20462;-73
2022/03/23 12:41:57;;;;;;;6.30;5.70;;;;;;;;;;5095349;28;20454;-73
2022/03/23 12:44:32;;;;;;;7.97;6.60;;;;;;;;;;5095200;28;20478;-73
2022/03/23 12:47:03;;;;;;;7.10;5.60;;;;;;;;;;5094347;28;20461;-73
2022/03/23 12:58:03;;;;;;;6.03;5.47;;;;;;;;;;5094943;28;20518;-73
2022/03/23 13:00:31;;;;;;;6.53;5.90;;;;;;;;;;5094901;28;20453;-72
2022/03/23 13:03:32;;;;;;;31.03;28.10;;;;;;;;;;5094801;28;20822;-72
2022/03/23 13:06:09;;;;;;;8.40;7.60;;;;;;;;;;5094789;28;21034;-72
2022/03/23 13:08:38;;;;;;;6.53;5.90;;;;;;;;;;5094729;28;20857;-72
2022/03/23 13:11:06;;;;;;;6.73;6.03;;;;;;;;;;5094684;28;20827;-72
2022/03/23 13:13:36;;;;;;;8.87;6.93;;;;;;;;;;5094484;28;20940;-72
2022/03/23 13:16:03;;;;;;;7.50;5.40;;;;;;;;;;5094576;28;20442;-72
2022/03/23 13:18:31;;;;;;;7.87;6.73;;;;;;;;;;5094677;28;20458;-72
2022/03/23 13:20:59;;;;;;;11.57;5.70;;;;;;;;;;5094591;28;20447;-72
2022/03/23 13:23:26;;;;;;;6.30;5.50;;;;;;;;;;5094460;28;20501;-72
2022/03/23 13:26:03;;;;;;;6.13;5.53;;;;;;;;;;5094257;28;20454;-72
2022/03/23 13:28:32;;;;;;;7.53;6.33;;;;;;;;;;5094585;28;20539;-72
2022/03/23 13:31:01;;;;;;;7.53;6.00;;;;;;;;;;5094658;28;20935;-72
2022/03/23 13:33:35;;;;;;;5.70;4.83;;;;;;;;;;5094432;28;20446;-75
2022/03/23 13:36:03;;;;;;;8.00;5.80;;;;;;;;;;5094274;28;20493;-72
2022/03/23 13:38:34;;;;;;;8.50;5.57;;;;;;;;;;5094055;28;20474;-72
2022/03/23 13:43:47;;;;;;;6.33;5.30;;;;;;;;;;5093934;28;21002;-73
2022/03/23 13:46:17;;;;;;;5.07;4.57;;;;;;;;;;5093973;28;20452;-72
2022/03/23 13:48:44;;;;;;;6.17;5.57;;;;;;;;;;5093970;28;20531;-72
2022/03/23 13:51:11;;;;;;;7.40;5.73;;;;;;;;;;5093945;28;20451;-72
2022/03/23 13:53:39;;;;;;;7.13;5.40;;;;;;;;;;5093880;28;20454;-73
2022/03/23 13:56:06;;;;;;;8.70;6.03;;;;;;;;;;5093875;28;20455;-72
2022/03/23 13:58:34;;;;;;;7.23;6.17;;;;;;;;;;5093812;28;20466;-73
2022/03/23 14:01:02;;;;;;;5.43;4.93;;;;;;;;;;5093725;28;20454;-73
2022/03/23 14:03:32;;;;;;;7.87;5.60;;;;;;;;;;5093613;28;20462;-72
2022/03/23 14:06:03;;;;;;;7.60;5.80;;;;;;;;;;5093600;28;20459;-72
2022/03/23 14:08:30;;;;;;;7.67;6.07;;;;;;;;;;5093699;28;20471;-72
2022/03/23 14:10:58;;;;;;;6.27;5.67;;;;;;;;;;5093847;28;20450;-72
2022/03/23 14:13:26;;;;;;;6.60;5.27;;;;;;;;;;5093546;28;20875;-73
2022/03/23 14:15:55;;;;;;;5.00;4.13;;;;;;;;;;5093560;28;20501;-72
2022/03/23 14:18:22;;;;;;;7.97;4.87;;;;;;;;;;5093553;28;20475;-72
2022/03/23 14:20:52;;;;;;;6.97;4.87;;;;;;;;;;5093701;28;20784;-72
2022/03/23 14:23:19;;;;;;;6.93;5.20;;;;;;;;;;5093310;28;20485;-72
2022/03/23 14:25:46;;;;;;;6.63;4.57;;;;;;;;;;5093033;28;20493;-73
2022/03/23 14:28:19;;;;;;;6.70;5.30;;;;;;;;;;5093162;28;20554;-72
2022/03/23 14:30:49;;;;;;;6.07;5.40;;;;;;;;;;5093738;28;20819;-73
2022/03/23 14:33:19;;;;;;;6.60;4.30;;;;;;;;;;5093276;28;20932;-72
2022/03/23 14:35:46;;;;;;;6.07;4.70;;;;;;;;;;5093164;28;20974;-73
2022/03/23 14:38:15;;;;;;;9.57;6.73;;;;;;;;;;5093008;28;20467;-73
2022/03/23 14:40:50;;;;;;;12.40;9.40;;;;;;;;;;5093203;28;20454;-72
2022/03/23 14:43:34;;;;;;;7.27;5.00;;;;;;;;;;5093354;28;20446;-72
2022/03/23 14:46:20;;;;;;;13.90;5.67;;;;;;;;;;5093035;28;20504;-72
2022/03/23 14:48:48;;;;;;;5.93;4.80;;;;;;;;;;5093179;28;20471;-72
2022/03/23 14:51:16;;;;;;;7.67;5.00;;;;;;;;;;5093009;28;20554;-72
2022/03/23 14:53:47;;;;;;;5.57;4.97;;;;;;;;;;5093041;28;20532;-76
2022/03/23 14:56:14;;;;;;;6.90;4.90;;;;;;;;;;5093123;28;20489;-72
2022/03/23 14:58:41;;;;;;;6.40;5.80;;;;;;;;;;5092912;28;20481;-72
2022/03/23 15:01:08;;;;;;;5.47;4.77;;;;;;;;;;5093084;28;20502;-73
2022/03/23 15:03:36;;;;;;;6.83;5.30;;;;;;;;;;5092807;28;20455;-72
2022/03/23 15:14:19;;;;;;;7.70;5.20;;;;;;;;;;5096970;28;20795;-72
2022/03/23 15:16:47;;;;;;;7.90;5.37;;;;;;;;;;5096952;28;20947;-73
2022/03/23 15:19:15;;;;;;;6.30;5.17;;;;;;;;;;5097045;28;20477;-72